Time,TemperatureF,DewpointF,PressureIn,WindDirection,WindDirectionDegrees,WindSpeedMPH,WindSpeedGustMPH,Humidity,HourlyPrecipIn,Conditions,Clouds,dailyrainin,SoftwareType,DateUTC
2013-03-03 00:01:00,32.0,21.0,-100.00,WSW,258,24.0,38.0,63,0.00,,,-99.99,,2013-03-03 07:01:00,
2013-03-03 00:11:00,32.0,21.0,-100.00,West,263,24.0,38.0,63,0.00,,,-99.99,,2013-03-03 07:11:00,
2013-03-03 00:21:00,32.0,21.0,-100.00,WSW,254,22.0,35.0,64,0.00,,,-99.99,,2013-03-03 07:21:00,
2013-03-03 00:31:00,31.0,21.0,-100.00,West,264,19.0,28.0,65,0.00,,,-99.99,,2013-03-03 07:31:00,
2013-03-03 00:42:00,32.0,21.0,-100.00,WSW,257,23.0,36.0,64,0.00,,,-99.99,,2013-03-03 07:42:00,
2013-03-03 00:51:00,31.0,21.0,-100.00,WSW,256,22.0,37.0,64,0.00,,,-99.99,,2013-03-03 07:51:00,
2013-03-03 01:01:00,31.0,21.0,-100.00,WSW,257,21.0,34.0,65,0.00,,,-99.99,,2013-03-03 08:01:00,
2013-03-03 01:11:00,31.0,21.0,-100.00,WSW,258,21.0,31.0,66,0.00,,,-99.99,,2013-03-03 08:11:00,
2013-03-03 01:21:00,31.0,21.0,-100.00,WSW,257,23.0,35.0,66,0.00,,,-99.99,,2013-03-03 08:21:00,
2013-03-03 01:31:00,31.0,21.0,-100.00,West,261,21.0,35.0,67,0.00,,,-99.99,,2013-03-03 08:31:00,
2013-03-03 01:41:00,31.0,21.0,-100.00,West,264,19.0,35.0,68,0.00,,,-99.99,,2013-03-03 08:41:00,
2013-03-03 01:53:00,30.0,22.0,-100.00,West,267,14.0,26.0,69,0.00,,,-99.99,,2013-03-03 08:53:00,
2013-03-03 02:01:00,30.0,22.0,-100.00,West,261,16.0,25.0,71,0.00,,,-99.99,,2013-03-03 09:01:00,
2013-03-03 02:11:00,30.0,22.0,-100.00,West,261,16.0,26.0,71,0.00,,,-99.99,,2013-03-03 09:11:00,
2013-03-03 02:21:00,31.0,23.0,-100.00,WSW,254,24.0,38.0,71,0.00,,,-99.99,,2013-03-03 09:21:00,
2013-03-03 02:31:00,31.0,23.0,-100.00,WSW,258,23.0,34.0,73,0.00,,,-99.99,,2013-03-03 09:31:00,
2013-03-03 02:41:00,30.0,23.0,-100.00,West,265,21.0,33.0,75,0.00,,,-99.99,,2013-03-03 09:41:00,
2013-03-03 02:51:00,30.0,24.0,-100.00,West,267,18.0,29.0,78,0.00,,,-99.99,,2013-03-03 09:51:00,
2013-03-03 03:01:00,30.0,24.0,-100.00,West,265,21.0,32.0,76,0.00,,,-99.99,,2013-03-03 10:01:00,
2013-03-03 03:11:00,30.0,24.0,-100.00,West,264,21.0,32.0,76,0.00,,,-99.99,,2013-03-03 10:11:00,
2013-03-03 03:21:00,30.0,24.0,-100.00,West,265,17.0,26.0,77,0.00,,,-99.99,,2013-03-03 10:21:00,
2013-03-03 03:31:00,30.0,24.0,-100.00,West,263,19.0,32.0,76,0.00,,,-99.99,,2013-03-03 10:31:00,
2013-03-03 03:41:00,30.0,24.0,-100.00,West,261,18.0,29.0,76,0.00,,,-99.99,,2013-03-03 10:41:00,
2013-03-03 03:51:00,30.0,24.0,-100.00,West,263,18.0,32.0,76,0.00,,,-99.99,,2013-03-03 10:51:00,
2013-03-03 04:01:00,30.0,24.0,-100.00,West,267,16.0,24.0,76,0.00,,,-99.99,,2013-03-03 11:01:00,
2013-03-03 04:11:00,30.0,24.0,-100.00,West,267,14.0,24.0,76,0.00,,,-99.99,,2013-03-03 11:11:00,
2013-03-03 04:21:00,29.0,24.0,-100.00,West,268,12.0,25.0,80,0.00,,,-99.99,,2013-03-03 11:21:00,
2013-03-03 04:31:00,30.0,24.0,-100.00,West,267,17.0,31.0,80,0.00,,,-99.99,,2013-03-03 11:31:00,
2013-03-03 04:41:00,30.0,25.0,-100.00,West,260,23.0,34.0,81,0.00,,,-99.99,,2013-03-03 11:41:00,
2013-03-03 04:52:00,30.0,25.0,-100.00,West,261,23.0,35.0,82,0.00,,,-99.99,,2013-03-03 11:52:00,
2013-03-03 05:01:00,30.0,25.0,-100.00,WSW,257,22.0,33.0,83,0.00,,,-99.99,,2013-03-03 12:01:00,
2013-03-03 05:11:00,29.0,25.0,-100.00,WSW,258,21.0,32.0,83,0.00,,,-99.99,,2013-03-03 12:11:00,
2013-03-03 05:21:00,29.0,25.0,-100.00,West,260,18.0,27.0,83,0.00,,,-99.99,,2013-03-03 12:21:00,
2013-03-03 05:31:00,29.0,25.0,-100.00,West,260,18.0,30.0,83,0.00,,,-99.99,,2013-03-03 12:31:00,
2013-03-03 05:42:00,29.0,25.0,-100.00,WSW,256,19.0,25.0,85,0.00,,,-99.99,,2013-03-03 12:42:00,
2013-03-03 05:53:00,-999.0,-99.9,-100.00,West,264,18.0,24.0,-999,-99.99,,,-99.99,,2013-03-03 12:53:00,
2013-03-03 06:01:00,28.0,27.0,-100.00,West,260,17.0,24.0,95,0.00,,,-99.99,,2013-03-03 13:01:00,
2013-03-03 06:11:00,28.0,27.0,-100.00,West,263,16.0,23.0,97,0.03,,,-99.99,,2013-03-03 13:11:00,
2013-03-03 06:21:00,28.0,28.0,-100.00,West,267,16.0,23.0,99,0.00,,,-99.99,,2013-03-03 13:21:00,
2013-03-03 06:31:00,27.0,27.0,-100.00,West,265,15.0,23.0,100,0.01,,,-99.99,,2013-03-03 13:31:00,
2013-03-03 06:41:00,27.0,27.0,-100.00,West,265,14.0,20.0,100,0.03,,,-99.99,,2013-03-03 13:41:00,
2013-03-03 06:51:00,27.0,27.0,-100.00,West,261,15.0,21.0,100,0.00,,,-99.99,,2013-03-03 13:51:00,
2013-03-03 07:01:00,28.0,28.0,-100.00,West,260,15.0,22.0,100,0.01,,,-99.99,,2013-03-03 14:01:00,
2013-03-03 07:11:00,-999.0,-99.9,-100.00,West,260,17.0,24.0,-999,-99.99,,,-99.99,,2013-03-03 14:11:00,
2013-03-03 07:21:00,27.0,27.0,-100.00,West,261,16.0,24.0,100,0.00,,,-99.99,,2013-03-03 14:21:00,
2013-03-03 07:31:00,27.0,27.0,-100.00,West,265,13.0,18.0,100,0.00,,,-99.99,,2013-03-03 14:31:00,
2013-03-03 07:42:00,28.0,28.0,-100.00,West,268,13.0,19.0,100,0.00,,,-99.99,,2013-03-03 14:42:00,
2013-03-03 07:52:00,28.0,28.0,-100.00,WSW,256,17.0,26.0,100,0.00,,,-99.99,,2013-03-03 14:52:00,
2013-03-03 08:01:00,28.0,28.0,-100.00,West,260,16.0,25.0,100,0.00,,,-99.99,,2013-03-03 15:01:00,
2013-03-03 08:11:00,29.0,28.0,-100.00,WSW,254,20.0,29.0,98,0.00,,,-99.99,,2013-03-03 15:11:00,
2013-03-03 08:21:00,29.0,28.0,-100.00,WSW,253,21.0,29.0,92,0.00,,,-99.99,,2013-03-03 15:21:00,
2013-03-03 08:31:00,29.0,27.0,-100.00,WSW,247,20.0,27.0,91,0.00,,,-99.99,,2013-03-03 15:31:00,
2013-03-03 08:41:00,30.0,26.0,-100.00,WSW,251,21.0,29.0,87,0.00,,,-99.99,,2013-03-03 15:41:00,
2013-03-03 08:51:00,30.0,26.0,-100.00,WSW,251,21.0,32.0,87,0.00,,,-99.99,,2013-03-03 15:51:00,
2013-03-03 09:01:00,30.0,26.0,-100.00,WSW,256,22.0,35.0,86,0.00,,,-99.99,,2013-03-03 16:01:00,
2013-03-03 09:11:00,30.0,26.0,-100.00,WSW,258,26.0,35.0,83,0.00,,,-99.99,,2013-03-03 16:11:00,
2013-03-03 09:21:00,31.0,25.0,-100.00,West,261,24.0,35.0,79,0.00,,,-99.99,,2013-03-03 16:21:00,
2013-03-03 09:31:00,32.0,24.0,-100.00,West,260,25.0,34.0,74,0.00,,,-99.99,,2013-03-03 16:31:00,
2013-03-03 09:41:00,32.0,25.0,-100.00,WSW,257,25.0,36.0,76,0.00,,,-99.99,,2013-03-03 16:41:00,
2013-03-03 09:51:00,32.0,25.0,-100.00,West,260,26.0,37.0,75,0.00,,,-99.99,,2013-03-03 16:51:00,
2013-03-03 10:01:00,32.0,25.0,-100.00,WSW,254,29.0,38.0,74,0.00,,,-99.99,,2013-03-03 17:01:00,
2013-03-03 10:11:00,33.0,24.0,-100.00,WSW,253,27.0,39.0,72,0.00,,,-99.99,,2013-03-03 17:11:00,
2013-03-03 10:21:00,34.0,24.0,-100.00,WSW,253,29.0,43.0,66,0.00,,,-99.99,,2013-03-03 17:21:00,
2013-03-03 10:32:00,33.0,24.0,-100.00,WSW,246,34.0,44.0,69,0.00,,,-99.99,,2013-03-03 17:32:00,
2013-03-03 10:41:00,34.0,22.0,-100.00,WSW,254,34.0,45.0,61,0.00,,,-99.99,,2013-03-03 17:41:00,
2013-03-03 10:52:00,34.0,22.0,-100.00,WSW,257,32.0,46.0,62,0.00,,,-99.99,,2013-03-03 17:52:00,
2013-03-03 11:01:00,34.0,22.0,-100.00,WSW,247,34.0,45.0,62,0.00,,,-99.99,,2013-03-03 18:01:00,
2013-03-03 11:11:00,34.0,22.0,-100.00,WSW,248,32.0,44.0,61,0.00,,,-99.99,,2013-03-03 18:11:00,
2013-03-03 11:22:00,-999.0,-99.9,-100.00,WSW,250,34.0,50.0,-999,-99.99,,,-99.99,,2013-03-03 18:22:00,
2013-03-03 11:31:00,32.0,24.0,-100.00,WSW,244,39.0,50.0,73,0.00,,,-99.99,,2013-03-03 18:31:00,
2013-03-03 11:41:00,32.0,24.0,-100.00,WSW,246,35.0,48.0,71,0.00,,,-99.99,,2013-03-03 18:41:00,
2013-03-03 11:52:00,32.0,24.0,-100.00,WSW,254,32.0,41.0,73,0.00,,,-99.99,,2013-03-03 18:52:00,
2013-03-03 12:01:00,32.0,25.0,-100.00,WSW,246,33.0,46.0,75,0.00,,,-99.99,,2013-03-03 19:01:00,
2013-03-03 12:11:00,31.0,26.0,-100.00,WSW,253,34.0,48.0,79,0.00,,,-99.99,,2013-03-03 19:11:00,
2013-03-03 12:21:00,32.0,25.0,-100.00,WSW,253,32.0,47.0,76,0.00,,,-99.99,,2013-03-03 19:21:00,
2013-03-03 12:31:00,32.0,24.0,-100.00,WSW,253,30.0,41.0,70,0.00,,,-99.99,,2013-03-03 19:31:00,
2013-03-03 12:42:00,32.0,24.0,-100.00,WSW,251,32.0,47.0,73,0.00,,,-99.99,,2013-03-03 19:42:00,
2013-03-03 12:51:00,34.0,23.0,-100.00,WSW,250,35.0,50.0,63,0.00,,,-99.99,,2013-03-03 19:51:00,
2013-03-03 13:01:00,34.0,23.0,-100.00,WSW,253,35.0,54.0,63,0.00,,,-99.99,,2013-03-03 20:01:00,
2013-03-03 13:11:00,35.0,23.0,-100.00,WSW,253,33.0,48.0,62,-99.99,,,-99.99,,2013-03-03 20:11:00,
2013-03-03 13:22:00,-999.0,-99.9,-100.00,WSW,250,36.0,54.0,-999,-99.99,,,-99.99,,2013-03-03 20:22:00,
2013-03-03 13:31:00,36.0,22.0,-100.00,WSW,254,27.0,41.0,57,0.00,,,-99.99,,2013-03-03 20:31:00,
2013-03-03 13:42:00,36.0,22.0,-100.00,WSW,251,26.0,35.0,55,0.00,,,-99.99,,2013-03-03 20:42:00,
2013-03-03 13:52:00,36.0,22.0,-100.00,West,261,27.0,43.0,54,0.00,,,-99.99,,2013-03-03 20:52:00,
2013-03-03 14:01:00,36.0,21.0,-100.00,WSW,251,30.0,48.0,54,0.00,,,-99.99,,2013-03-03 21:01:00,
2013-03-03 14:11:00,36.0,20.0,-100.00,WSW,248,34.0,49.0,54,0.00,,,-99.99,,2013-03-03 21:11:00,
2013-03-03 14:21:00,35.0,19.0,-100.00,WSW,250,35.0,50.0,52,0.00,,,-99.99,,2013-03-03 21:21:00,
2013-03-03 14:31:00,34.0,21.0,-100.00,WSW,250,29.0,43.0,57,0.00,,,-99.99,,2013-03-03 21:31:00,
2013-03-03 14:41:00,35.0,20.0,-100.00,WSW,248,28.0,41.0,54,0.00,,,-99.99,,2013-03-03 21:41:00,
2013-03-03 14:51:00,35.0,18.0,-100.00,WSW,251,31.0,44.0,49,0.00,,,-99.99,,2013-03-03 21:51:00,
2013-03-03 15:01:00,35.0,18.0,-100.00,WSW,250,33.0,49.0,49,0.00,,,-99.99,,2013-03-03 22:01:00,
2013-03-03 15:11:00,34.0,17.0,-100.00,WSW,254,32.0,55.0,50,0.00,,,-99.99,,2013-03-03 22:11:00,
2013-03-03 15:21:00,34.0,18.0,-100.00,WSW,248,26.0,35.0,52,0.00,,,-99.99,,2013-03-03 22:21:00,
2013-03-03 15:31:00,34.0,19.0,-100.00,WSW,247,26.0,39.0,53,0.00,,,-99.99,,2013-03-03 22:31:00,
2013-03-03 15:41:00,34.0,20.0,-100.00,WSW,248,23.0,33.0,55,0.00,,,-99.99,,2013-03-03 22:41:00,
2013-03-03 15:53:00,-999.0,-99.9,-100.00,WSW,254,24.0,37.0,-999,-99.99,,,-99.99,,2013-03-03 22:53:00,
2013-03-03 16:01:00,33.0,19.0,-100.00,WSW,243,24.0,32.0,55,0.00,,,-99.99,,2013-03-03 23:01:00,
2013-03-03 16:11:00,33.0,19.0,-100.00,WSW,246,26.0,37.0,56,0.00,,,-99.99,,2013-03-03 23:11:00,
2013-03-03 16:21:00,32.0,19.0,-100.00,WSW,253,21.0,31.0,59,0.00,,,-99.99,,2013-03-03 23:21:00,
2013-03-03 16:31:00,32.0,19.0,-100.00,WSW,251,17.0,32.0,57,0.00,,,-99.99,,2013-03-03 23:31:00,
2013-03-03 16:41:00,32.0,19.0,-100.00,WSW,256,16.0,26.0,58,0.00,,,-99.99,,2013-03-03 23:41:00,
2013-03-03 16:52:00,32.0,19.0,-100.00,WSW,256,8.0,14.0,59,0.00,,,-99.99,,2013-03-03 23:52:00,
2013-03-03 17:01:00,32.0,18.0,-100.00,WSW,243,8.0,12.0,56,0.00,,,-99.99,,2013-03-04 00:01:00,
2013-03-03 17:11:00,31.0,18.0,-100.00,WSW,240,11.0,26.0,59,0.00,,,-99.99,,2013-03-04 00:11:00,
2013-03-03 17:21:00,27.0,21.0,-100.00,SW,226,11.0,21.0,73,0.00,,,-99.99,,2013-03-04 00:21:00,
2013-03-03 17:31:00,20.0,20.0,-100.00,East,96,11.0,16.0,98,0.00,,,-99.99,,2013-03-04 00:31:00,
2013-03-03 17:41:00,20.0,19.0,-100.00,East,96,7.0,12.0,99,-99.99,,,-99.99,,2013-03-04 00:41:00,
2013-03-03 17:51:00,20.0,19.0,-100.00,East,88,7.0,10.0,99,0.00,,,-99.99,,2013-03-04 00:51:00,
2013-03-03 18:01:00,23.0,23.0,-100.00,West,265,9.0,33.0,100,0.43,,,-99.99,,2013-03-04 01:01:00,
2013-03-03 18:21:00,21.0,21.0,-100.00,WSW,254,22.0,35.0,99,0.20,,,-99.99,,2013-03-04 01:21:00,
2013-03-03 18:31:00,20.0,20.0,-100.00,WSW,248,24.0,39.0,98,0.00,,,-99.99,,2013-03-04 01:31:00,
2013-03-03 18:41:00,19.0,19.0,-100.00,WSW,248,24.0,34.0,98,0.00,,,-99.99,,2013-03-04 01:41:00,
2013-03-03 18:51:00,19.0,19.0,-100.00,WSW,253,26.0,36.0,98,0.00,,,-99.99,,2013-03-04 01:51:00,
2013-03-03 19:01:00,19.0,18.0,-100.00,WSW,251,24.0,35.0,98,0.00,,,-99.99,,2013-03-04 02:01:00,
2013-03-03 19:11:00,18.0,17.0,-100.00,WSW,244,30.0,40.0,97,0.00,,,-99.99,,2013-03-04 02:11:00,
2013-03-03 19:22:00,17.0,16.0,-100.00,WSW,248,30.0,41.0,97,0.00,,,-99.99,,2013-03-04 02:22:00,
2013-03-03 19:31:00,17.0,15.0,-100.00,WSW,247,31.0,41.0,95,0.00,,,-99.99,,2013-03-04 02:31:00,
2013-03-03 19:41:00,16.0,14.0,-100.00,WSW,247,34.0,45.0,93,0.00,,,-99.99,,2013-03-04 02:41:00,
2013-03-03 19:52:00,16.0,13.0,-100.00,WSW,246,34.0,45.0,90,0.00,,,-99.99,,2013-03-04 02:52:00,
2013-03-03 20:01:00,15.0,13.0,-100.00,WSW,248,32.0,43.0,90,0.00,,,-99.99,,2013-03-04 03:01:00,
2013-03-03 20:11:00,15.0,13.0,-100.00,WSW,251,33.0,45.0,90,0.00,,,-99.99,,2013-03-04 03:11:00,
2013-03-03 20:21:00,15.0,12.0,-100.00,WSW,248,32.0,44.0,88,0.00,,,-99.99,,2013-03-04 03:21:00,
2013-03-03 20:31:00,15.0,9.0,-100.00,WSW,247,34.0,44.0,79,0.00,,,-99.99,,2013-03-04 03:31:00,
2013-03-03 20:41:00,15.0,7.0,-100.00,WSW,253,35.0,50.0,71,0.00,,,-99.99,,2013-03-04 03:41:00,
2013-03-03 20:52:00,15.0,5.0,-100.00,WSW,248,35.0,47.0,64,0.00,,,-99.99,,2013-03-04 03:52:00,
2013-03-03 21:02:00,-999.0,-99.9,-100.00,WSW,248,35.0,47.0,-999,-99.99,,,-99.99,,2013-03-04 04:02:00,
2013-03-03 21:11:00,15.0,4.0,-100.00,WSW,250,31.0,46.0,63,0.00,,,-99.99,,2013-03-04 04:11:00,
2013-03-03 21:21:00,15.0,4.0,-100.00,WSW,254,29.0,39.0,61,0.00,,,-99.99,,2013-03-04 04:21:00,
2013-03-03 21:31:00,15.0,4.0,-100.00,WSW,256,27.0,39.0,61,0.00,,,-99.99,,2013-03-04 04:31:00,
2013-03-03 21:41:00,15.0,3.0,-100.00,WSW,253,29.0,40.0,59,0.00,,,-99.99,,2013-03-04 04:41:00,
2013-03-03 21:51:00,15.0,3.0,-100.00,WSW,256,28.0,40.0,58,0.00,,,-99.99,,2013-03-04 04:51:00,
2013-03-03 22:01:00,14.0,3.0,-100.00,WSW,250,29.0,40.0,59,0.00,,,-99.99,,2013-03-04 05:01:00,
2013-03-03 22:11:00,14.0,2.0,-100.00,WSW,251,29.0,38.0,57,0.00,,,-99.99,,2013-03-04 05:11:00,
2013-03-03 22:22:00,14.0,2.0,-100.00,WSW,250,29.0,40.0,56,0.00,,,-99.99,,2013-03-04 05:22:00,
2013-03-03 22:31:00,14.0,1.0,-100.00,WSW,248,27.0,38.0,57,0.00,,,-99.99,,2013-03-04 05:31:00,
2013-03-03 22:42:00,14.0,0.0,-100.00,WSW,253,25.0,32.0,55,0.00,,,-99.99,,2013-03-04 05:42:00,
2013-03-03 22:52:00,13.0,1.0,-100.00,WSW,250,28.0,39.0,57,0.00,,,-99.99,,2013-03-04 05:52:00,
2013-03-03 23:01:00,13.0,1.0,-100.00,WSW,247,28.0,37.0,57,0.00,,,-99.99,,2013-03-04 06:01:00,
2013-03-03 23:21:00,13.0,0.0,-100.00,WSW,253,30.0,43.0,56,0.00,,,-99.99,,2013-03-04 06:21:00,
2013-03-03 23:31:00,13.0,0.0,-100.00,WSW,253,29.0,39.0,57,0.00,,,-99.99,,2013-03-04 06:31:00,
2013-03-03 23:42:00,13.0,0.0,-100.00,WSW,258,29.0,43.0,56,0.00,,,-99.99,,2013-03-04 06:42:00,
2013-03-03 23:51:00,12.0,-1.0,-100.00,WSW,258,29.0,45.0,55,0.00,,,-99.99,,2013-03-04 06:51:00,